createdAt,value
2023-04-04T00:00:42.690Z,99.90
2023-04-04T00:03:11.279Z,99.90
2023-04-04T00:05:40.933Z,99.90
2023-04-04T00:08:09.674Z,99.90
2023-04-04T00:10:37.814Z,99.90
2023-04-04T00:13:07.612Z,99.90
2023-04-04T00:15:36.519Z,99.90
2023-04-04T00:18:04.888Z,99.90
2023-04-04T00:20:33.003Z,99.90
2023-04-04T00:23:02.370Z,99.90
2023-04-04T00:25:30.451Z,99.90
2023-04-04T00:28:00.970Z,99.90
2023-04-04T00:30:29.635Z,99.90
2023-04-04T00:32:58.181Z,99.90
2023-04-04T00:35:26.646Z,99.90
2023-04-04T00:37:54.705Z,99.90
2023-04-04T00:40:24.366Z,99.90
2023-04-04T00:42:53.010Z,99.90
2023-04-04T00:45:21.491Z,99.90
2023-04-04T00:47:50.244Z,99.90
2023-04-04T00:50:18.506Z,99.90
2023-04-04T00:52:46.512Z,99.90
2023-04-04T00:55:14.697Z,99.90
2023-04-04T00:57:44.172Z,99.90
2023-04-04T01:00:15.998Z,99.90
2023-04-04T01:02:44.383Z,99.90
2023-04-04T01:05:13.525Z,99.90
2023-04-04T01:07:42.763Z,99.90
2023-04-04T01:10:12.738Z,99.90
2023-04-04T01:12:43.128Z,99.90
2023-04-04T01:15:12.295Z,99.90
2023-04-04T01:17:41.856Z,99.90
2023-04-04T01:20:14.020Z,99.90
2023-04-04T01:22:48.488Z,99.90
2023-04-04T01:25:19.968Z,99.90
2023-04-04T01:27:56.676Z,99.90
2023-04-04T01:30:27.290Z,99.90
2023-04-04T01:33:00.570Z,99.90
2023-04-04T01:35:36.788Z,99.90
2023-04-04T01:38:15.885Z,99.90
2023-04-04T01:40:49.611Z,99.90
2023-04-04T01:43:19.851Z,99.90
2023-04-04T01:45:48.173Z,99.90
2023-04-04T01:48:17.097Z,99.90
2023-04-04T01:50:49.137Z,99.90
2023-04-04T01:53:17.848Z,99.90
2023-04-04T01:55:45.907Z,99.90
2023-04-04T01:58:15.580Z,99.90
2023-04-04T02:00:45.083Z,99.90
2023-04-04T02:03:13.124Z,99.90
2023-04-04T02:05:41.179Z,99.90
2023-04-04T02:08:10.384Z,99.90
2023-04-04T02:10:47.244Z,99.90
2023-04-04T02:13:15.287Z,99.90
2023-04-04T02:15:44.746Z,99.90
2023-04-04T02:18:12.879Z,99.90
2023-04-04T02:20:41.194Z,99.90
2023-04-04T02:23:09.401Z,99.90
2023-04-04T02:25:37.487Z,99.90
2023-04-04T02:28:05.574Z,99.90
2023-04-04T02:30:33.611Z,99.90
2023-04-04T02:33:05.631Z,99.90
2023-04-04T02:35:34.090Z,99.90
2023-04-04T02:38:02.358Z,99.90
2023-04-04T02:40:41.488Z,99.90
2023-04-04T02:43:10.151Z,99.90
2023-04-04T02:45:39.148Z,99.90
2023-04-04T02:48:22.822Z,99.90
2023-04-04T02:50:53.334Z,99.90
2023-04-04T02:53:21.464Z,99.90
2023-04-04T02:55:51.685Z,99.90
2023-04-04T02:58:19.700Z,99.90
2023-04-04T03:00:48.188Z,99.90
2023-04-04T03:03:16.898Z,99.90
2023-04-04T03:05:49.545Z,99.90
2023-04-04T03:08:17.800Z,99.90
2023-04-04T03:10:46.512Z,99.90
2023-04-04T03:13:14.597Z,99.90
2023-04-04T03:15:43.809Z,99.90
2023-04-04T03:18:17.468Z,99.90
2023-04-04T03:20:46.167Z,99.90
2023-04-04T03:23:15.565Z,99.90
2023-04-04T03:25:43.684Z,99.90
2023-04-04T03:28:12.526Z,99.90
2023-04-04T03:30:41.754Z,99.90
2023-04-04T03:33:10.241Z,99.90
2023-04-04T03:35:40.348Z,99.90
2023-04-04T03:38:09.371Z,99.90
2023-04-04T03:40:38.972Z,99.90
2023-04-04T03:43:12.907Z,99.90
2023-04-04T03:45:42.687Z,99.90
2023-04-04T03:48:11.334Z,99.90
2023-04-04T03:50:40.973Z,99.90
2023-04-04T03:53:09.261Z,99.90
2023-04-04T03:55:42.009Z,99.90
2023-04-04T03:58:10.054Z,99.90
2023-04-04T04:00:38.376Z,99.90
2023-04-04T04:03:06.609Z,99.90
2023-04-04T04:05:34.756Z,99.90
2023-04-04T04:08:02.835Z,99.90
2023-04-04T04:10:30.873Z,99.90
2023-04-04T04:13:01.275Z,99.90
2023-04-04T04:15:29.971Z,99.90
2023-04-04T04:18:00.239Z,99.90
2023-04-04T04:20:29.400Z,99.90
2023-04-04T04:22:58.173Z,99.90
2023-04-04T04:25:26.512Z,99.90
2023-04-04T04:28:03.679Z,99.90
2023-04-04T04:30:32.691Z,99.90
2023-04-04T04:33:00.992Z,99.90
2023-04-04T04:35:37.899Z,99.90
2023-04-04T04:38:06.708Z,99.90
2023-04-04T04:40:34.979Z,99.90
2023-04-04T04:43:09.760Z,99.90
2023-04-04T04:45:38.237Z,99.90
2023-04-04T04:48:09.484Z,99.90
2023-04-04T04:50:45.090Z,99.90
2023-04-04T04:53:15.342Z,99.90
2023-04-04T04:55:47.504Z,99.90
2023-04-04T04:58:17.521Z,99.90
2023-04-04T05:00:49.791Z,99.90
2023-04-04T05:03:17.853Z,99.90
2023-04-04T05:05:50.496Z,99.90
2023-04-04T05:08:18.801Z,99.90
2023-04-04T05:11:04.790Z,99.90
2023-04-04T05:13:35.957Z,99.90
2023-04-04T05:16:04.806Z,99.90
2023-04-04T05:18:33.969Z,99.90
2023-04-04T05:21:02.569Z,99.90
2023-04-04T05:23:31.188Z,99.90
2023-04-04T05:25:59.231Z,99.90
2023-04-04T05:28:31.477Z,99.90
2023-04-04T05:31:04.616Z,99.90
2023-04-04T05:33:34.877Z,99.90
2023-04-04T05:36:13.253Z,99.90
2023-04-04T05:38:51.028Z,99.90
2023-04-04T05:41:22.152Z,99.90
2023-04-04T05:43:52.332Z,99.90
2023-04-04T05:46:26.088Z,99.90
2023-04-04T05:48:55.488Z,99.90
2023-04-04T05:51:24.716Z,99.90
2023-04-04T05:54:07.439Z,99.90
2023-04-04T05:56:36.642Z,99.90
2023-04-04T05:59:09.188Z,99.90
2023-04-04T06:01:53.329Z,99.90
2023-04-04T06:04:21.460Z,99.90
2023-04-04T06:06:49.715Z,99.90
2023-04-04T06:09:18.112Z,99.90
2023-04-04T06:11:46.136Z,99.90
2023-04-04T06:14:15.362Z,99.90
2023-04-04T06:16:44.808Z,99.90
2023-04-04T06:19:14.458Z,99.90
2023-04-04T06:21:43.076Z,99.90
2023-04-04T06:24:13.368Z,99.90
2023-04-04T06:26:42.706Z,99.90
2023-04-04T06:29:10.795Z,99.90
2023-04-04T06:31:40.690Z,99.90
2023-04-04T06:34:14.922Z,99.90
2023-04-04T06:37:02.172Z,99.90
2023-04-04T06:39:35.875Z,99.90
2023-04-04T06:42:08.553Z,99.90
2023-04-04T06:44:37.941Z,99.90
2023-04-04T06:47:06.438Z,99.90
2023-04-04T06:49:36.128Z,99.90
2023-04-04T06:52:04.306Z,99.90
2023-04-04T06:54:33.232Z,99.90
2023-04-04T06:57:01.358Z,99.90
2023-04-04T06:59:29.476Z,99.90
2023-04-04T07:01:58.451Z,99.90
2023-04-04T07:04:27.148Z,99.90
2023-04-04T07:06:57.107Z,99.90
2023-04-04T07:09:29.126Z,99.90
2023-04-04T07:11:57.953Z,99.90
2023-04-04T07:14:36.932Z,99.90
2023-04-04T07:17:13.720Z,99.90
2023-04-04T07:19:49.813Z,99.90
2023-04-04T07:22:19.240Z,99.90
2023-04-04T07:24:48.242Z,99.90
2023-04-04T07:27:16.482Z,99.90
2023-04-04T07:29:44.500Z,99.90
2023-04-04T07:32:12.560Z,99.90
2023-04-04T07:34:40.617Z,99.90
2023-04-04T07:37:08.633Z,99.90
2023-04-04T07:39:38.304Z,99.90
2023-04-04T07:42:06.637Z,99.90
2023-04-04T07:44:34.712Z,99.90
2023-04-04T07:47:10.055Z,99.90
2023-04-04T07:49:38.737Z,99.90
2023-04-04T07:52:07.211Z,99.90
2023-04-04T07:54:35.313Z,99.90
2023-04-04T07:57:06.026Z,99.90
2023-04-04T07:59:34.221Z,99.90
2023-04-04T08:02:02.248Z,99.90
2023-04-04T08:04:30.381Z,99.90
2023-04-04T08:06:58.691Z,99.90
2023-04-04T08:09:31.262Z,99.90
2023-04-04T08:11:59.445Z,99.90
2023-04-04T08:14:28.892Z,99.90
2023-04-04T08:16:56.916Z,99.90
2023-04-04T08:19:25.053Z,99.90
2023-04-04T08:21:53.114Z,99.90
2023-04-04T08:24:22.348Z,99.90
2023-04-04T08:26:58.252Z,99.90
2023-04-04T08:29:34.288Z,99.90
2023-04-04T08:32:02.437Z,99.90
2023-04-04T08:34:30.502Z,99.90
2023-04-04T08:36:58.639Z,99.90
2023-04-04T08:39:27.084Z,99.90
2023-04-04T08:42:03.968Z,99.90
2023-04-04T08:44:34.762Z,99.90
2023-04-04T08:47:05.393Z,99.90
2023-04-04T08:49:37.106Z,99.90
2023-04-04T08:52:07.451Z,99.90
2023-04-04T08:54:36.163Z,99.90
2023-04-04T08:57:04.617Z,99.90
2023-04-04T08:59:34.347Z,99.90
2023-04-04T09:02:06.665Z,99.90
2023-04-04T09:04:34.919Z,99.90
2023-04-04T09:07:05.098Z,99.90
2023-04-04T09:09:34.131Z,99.90
2023-04-04T09:12:03.424Z,99.90
2023-04-04T09:14:34.868Z,99.90
2023-04-04T09:17:03.538Z,99.90
2023-04-04T09:19:31.734Z,99.90
2023-04-04T09:21:59.752Z,99.90
2023-04-04T09:24:39.135Z,99.90
2023-04-04T09:27:09.612Z,99.90
2023-04-04T09:29:41.799Z,99.90
2023-04-04T09:32:11.116Z,99.90
2023-04-04T09:34:39.330Z,99.90
2023-04-04T09:37:07.484Z,99.90
2023-04-04T09:39:36.332Z,99.90
2023-04-04T09:42:04.898Z,99.90
2023-04-04T09:44:34.177Z,99.90
2023-04-04T09:47:30.550Z,99.90
2023-04-04T09:49:59.922Z,99.90
2023-04-04T09:52:28.363Z,99.90
2023-04-04T09:54:58.263Z,99.90
2023-04-04T09:57:28.996Z,99.90
2023-04-04T10:00:00.009Z,99.90
2023-04-04T10:02:32.534Z,99.90
2023-04-04T10:07:33.496Z,99.90
2023-04-04T10:10:03.808Z,99.90
2023-04-04T10:12:33.202Z,99.90
2023-04-04T10:15:01.775Z,99.90
2023-04-04T10:17:38.015Z,99.90
2023-04-04T10:20:09.054Z,99.90
2023-04-04T10:22:38.694Z,99.90
2023-04-04T10:25:09.315Z,99.90
2023-04-04T10:27:38.732Z,99.90
2023-04-04T10:30:08.181Z,99.90
2023-04-04T10:32:45.734Z,99.90
2023-04-04T10:35:14.958Z,99.90
2023-04-04T10:37:46.706Z,99.40
2023-04-04T10:40:17.400Z,99.90
2023-04-04T10:42:47.450Z,99.50
2023-04-04T10:45:21.308Z,99.90
2023-04-04T10:47:52.607Z,99.90
2023-04-04T10:50:21.829Z,99.90
2023-04-04T10:52:50.366Z,99.90
2023-04-04T10:55:18.680Z,99.90
2023-04-04T10:57:51.827Z,99.90
2023-04-04T11:00:23.368Z,99.90
2023-04-04T11:02:57.599Z,99.90
2023-04-04T11:05:26.819Z,99.90
2023-04-04T11:10:31.852Z,99.50
2023-04-04T11:13:12.838Z,99.90
2023-04-04T11:15:55.762Z,99.70
2023-04-04T11:18:47.977Z,98.30
2023-04-04T11:21:18.372Z,99.00
2023-04-04T11:24:18.935Z,98.60
2023-04-04T11:26:47.156Z,98.00
2023-04-04T11:29:23.990Z,95.80
2023-04-04T11:31:52.388Z,97.00
2023-04-04T11:34:34.480Z,97.60
2023-04-04T11:37:17.933Z,99.60
2023-04-04T11:39:56.530Z,95.70
2023-04-04T11:42:24.849Z,98.70
2023-04-04T11:45:07.525Z,96.80
2023-04-04T11:47:35.754Z,97.50
2023-04-04T11:50:10.628Z,98.10
2023-04-04T11:52:39.503Z,95.30
2023-04-04T11:55:17.058Z,96.60
2023-04-04T11:57:45.080Z,95.40
2023-04-04T12:00:15.633Z,96.30
2023-04-04T12:02:43.928Z,97.60
2023-04-04T12:05:14.628Z,97.80
2023-04-04T12:07:42.885Z,95.50
2023-04-04T12:10:11.835Z,96.70
2023-04-04T12:12:40.311Z,99.90
2023-04-04T12:15:17.303Z,99.90
2023-04-04T12:17:49.104Z,98.80
2023-04-04T12:20:18.672Z,98.70
2023-04-04T12:22:50.661Z,98.70
2023-04-04T12:25:20.497Z,98.80
2023-04-04T12:27:49.517Z,97.10
2023-04-04T12:30:18.857Z,98.70
2023-04-04T12:32:48.293Z,99.40
2023-04-04T12:35:18.751Z,98.70
2023-04-04T12:38:00.795Z,99.40
2023-04-04T12:40:36.972Z,99.00
2023-04-04T12:43:09.492Z,99.50
2023-04-04T12:45:41.535Z,99.90
2023-04-04T12:48:13.726Z,99.90
2023-04-04T12:50:54.100Z,97.80
2023-04-04T12:55:55.529Z,99.50
2023-04-04T12:58:25.974Z,99.60
2023-04-04T13:00:56.288Z,98.90
2023-04-04T13:03:25.725Z,97.20
2023-04-04T13:05:55.187Z,98.60
2023-04-04T13:08:23.446Z,98.00
2023-04-04T13:11:02.442Z,98.70
2023-04-04T13:13:35.329Z,98.50
2023-04-04T13:16:04.396Z,94.80
2023-04-04T13:18:38.248Z,95.30
2023-04-04T13:21:10.877Z,96.50
2023-04-04T13:23:40.598Z,99.00
2023-04-04T13:26:09.623Z,98.70
2023-04-04T13:28:37.928Z,99.90
2023-04-04T13:31:07.049Z,96.90
2023-04-04T13:33:35.886Z,97.70
2023-04-04T13:36:04.036Z,97.80
2023-04-04T13:38:33.649Z,99.80
2023-04-04T13:41:01.708Z,99.80
2023-04-04T13:43:29.746Z,98.00
2023-04-04T13:45:57.764Z,98.70
2023-04-04T13:48:26.370Z,97.70
2023-04-04T13:50:55.724Z,97.00
2023-04-04T13:53:23.846Z,99.90
2023-04-04T13:58:24.204Z,94.90
2023-04-04T14:00:52.569Z,97.90
2023-04-04T14:03:20.787Z,96.40
2023-04-04T14:05:48.863Z,99.60
2023-04-04T14:08:16.923Z,99.40
2023-04-04T14:10:44.968Z,97.40
2023-04-04T14:13:14.382Z,97.50
2023-04-04T14:15:42.893Z,97.30
2023-04-04T14:18:12.220Z,98.00
2023-04-04T14:20:40.286Z,96.90
2023-04-04T14:23:09.432Z,99.90
2023-04-04T14:25:37.511Z,99.40
2023-04-04T14:28:06.036Z,98.00
2023-04-04T14:30:35.396Z,98.00
2023-04-04T14:33:03.485Z,97.50
2023-04-04T14:35:31.514Z,99.90
2023-04-04T14:37:59.529Z,99.70
2023-04-04T14:40:29.227Z,98.70
2023-04-04T14:42:57.233Z,97.80
2023-04-04T14:45:25.583Z,98.10
2023-04-04T14:47:55.048Z,97.20
2023-04-04T14:50:23.065Z,97.50
2023-04-04T14:52:52.770Z,97.80
2023-04-04T14:55:22.019Z,98.60
2023-04-04T14:58:02.000Z,98.30
2023-04-04T15:00:31.175Z,99.00
2023-04-04T15:03:00.954Z,99.00
2023-04-04T15:05:29.080Z,97.90
2023-04-04T15:07:57.126Z,98.10
2023-04-04T15:10:25.156Z,98.60
2023-04-04T15:12:53.197Z,98.20
2023-04-04T15:15:23.468Z,98.60
2023-04-04T15:17:52.478Z,99.90
2023-04-04T15:20:21.920Z,99.90
2023-04-04T15:22:49.978Z,99.40
2023-04-04T15:25:18.000Z,98.80
2023-04-04T15:27:46.157Z,99.90
2023-04-04T15:30:15.561Z,98.20
2023-04-04T15:32:43.647Z,98.50
2023-04-04T15:35:18.263Z,99.90
2023-04-04T15:37:49.049Z,98.40
2023-04-04T15:40:17.587Z,99.60
2023-04-04T15:42:46.626Z,98.90
2023-04-04T15:45:16.024Z,98.70
2023-04-04T15:47:45.042Z,98.50
2023-04-04T15:50:13.523Z,99.90
2023-04-04T15:52:41.745Z,98.80
2023-04-04T15:55:14.443Z,98.10
2023-04-04T15:57:44.559Z,99.50
2023-04-04T16:00:14.544Z,99.90
2023-04-04T16:02:42.845Z,99.90
2023-04-04T16:05:11.421Z,99.90
2023-04-04T16:07:39.575Z,99.90
2023-04-04T16:10:08.942Z,99.90
2023-04-04T16:12:38.336Z,99.90
2023-04-04T16:15:08.268Z,99.70
2023-04-04T16:17:36.338Z,99.90
2023-04-04T16:20:04.930Z,99.90
2023-04-04T16:22:33.254Z,99.90
2023-04-04T16:25:01.390Z,99.90
2023-04-04T16:27:29.601Z,99.90
2023-04-04T16:29:58.979Z,99.90
2023-04-04T16:32:27.090Z,99.90
2023-04-04T16:34:55.432Z,99.90
2023-04-04T16:37:23.481Z,99.90
2023-04-04T16:39:52.150Z,99.90
2023-04-04T16:42:20.498Z,99.90
2023-04-04T16:44:48.588Z,99.90
2023-04-04T16:47:17.994Z,99.90
2023-04-04T16:49:47.903Z,99.90
2023-04-04T16:52:16.241Z,99.90
2023-04-04T16:54:44.391Z,99.90
2023-04-04T16:57:12.560Z,99.90
2023-04-04T16:59:40.612Z,99.90
2023-04-04T17:02:09.289Z,99.90
2023-04-04T17:04:41.632Z,99.90
2023-04-04T17:07:10.256Z,99.90
2023-04-04T17:09:38.571Z,99.90
2023-04-04T17:12:07.464Z,99.90
2023-04-04T17:14:35.865Z,99.90
2023-04-04T17:17:05.389Z,99.90
2023-04-04T17:19:35.214Z,99.90
2023-04-04T17:22:04.866Z,99.90
2023-04-04T17:24:33.374Z,99.90
2023-04-04T17:27:02.414Z,99.90
2023-04-04T17:29:30.749Z,99.90
2023-04-04T17:31:59.806Z,99.90
2023-04-04T17:34:28.395Z,99.90
2023-04-04T17:36:56.910Z,99.90
2023-04-04T17:39:28.680Z,99.90
2023-04-04T17:41:56.975Z,99.90
2023-04-04T17:44:25.755Z,99.90
2023-04-04T17:46:55.375Z,99.90
2023-04-04T17:49:23.754Z,99.90
2023-04-04T17:51:52.172Z,99.90
2023-04-04T17:54:20.811Z,99.90
2023-04-04T17:56:50.493Z,99.90
2023-04-04T17:59:18.753Z,99.90
2023-04-04T18:01:47.207Z,99.90
2023-04-04T18:04:15.663Z,99.90
2023-04-04T18:06:44.593Z,99.90
2023-04-04T18:09:13.488Z,99.90
2023-04-04T18:11:42.137Z,99.90
2023-04-04T18:14:11.963Z,99.90
2023-04-04T18:16:41.043Z,99.90
2023-04-04T18:19:10.001Z,99.90
2023-04-04T18:21:38.387Z,99.90
2023-04-04T18:24:07.954Z,99.90
2023-04-04T18:26:36.118Z,99.90
2023-04-04T18:29:04.248Z,99.90
2023-04-04T18:31:33.718Z,99.90
2023-04-04T18:34:02.046Z,99.90
2023-04-04T18:36:30.950Z,99.90
2023-04-04T18:39:00.996Z,99.90
2023-04-04T18:41:29.154Z,99.90
2023-04-04T18:43:57.312Z,99.90
2023-04-04T18:46:25.471Z,99.90
2023-04-04T18:48:56.283Z,99.90
2023-04-04T18:51:24.348Z,99.90
2023-04-04T18:53:52.561Z,99.90
2023-04-04T18:56:21.502Z,99.90
2023-04-04T18:58:49.631Z,99.90
2023-04-04T19:01:17.814Z,99.90
2023-04-04T19:03:48.059Z,99.90
2023-04-04T19:06:17.919Z,99.90
2023-04-04T19:08:46.321Z,99.90
2023-04-04T19:11:15.686Z,99.90
2023-04-04T19:13:43.881Z,99.90
2023-04-04T19:16:12.105Z,99.90
2023-04-04T19:18:40.207Z,99.90
2023-04-04T19:21:10.940Z,99.90
2023-04-04T19:23:40.919Z,99.90
2023-04-04T19:26:09.275Z,99.90
2023-04-04T19:28:37.620Z,99.90
2023-04-04T19:31:10.781Z,99.90
2023-04-04T19:33:39.592Z,99.90
2023-04-04T19:36:11.249Z,99.90
2023-04-04T19:38:42.610Z,99.90
2023-04-04T19:41:14.500Z,99.90
2023-04-04T19:43:45.337Z,99.90
2023-04-04T19:46:16.189Z,99.90
2023-04-04T19:48:48.623Z,99.90
2023-04-04T19:51:37.437Z,99.90
2023-04-04T19:54:09.108Z,99.90
2023-04-04T19:56:37.297Z,99.90
2023-04-04T19:59:08.274Z,99.90
2023-04-04T20:01:44.653Z,99.90
2023-04-04T20:04:18.858Z,99.90
2023-04-04T20:06:49.057Z,99.90
2023-04-04T20:09:34.543Z,99.90
2023-04-04T20:12:02.705Z,99.90
2023-04-04T20:14:30.915Z,99.90
2023-04-04T20:16:59.020Z,99.90
2023-04-04T20:19:28.656Z,99.90
2023-04-04T20:21:57.398Z,99.90
2023-04-04T20:24:28.434Z,99.90
2023-04-04T20:26:59.162Z,99.90
2023-04-04T20:29:28.896Z,99.90
2023-04-04T20:31:58.632Z,99.90
2023-04-04T20:34:41.449Z,99.90
2023-04-04T20:37:12.692Z,99.90
2023-04-04T20:39:46.660Z,99.90
2023-04-04T20:42:40.223Z,99.90
2023-04-04T20:45:34.779Z,99.90
2023-04-04T20:48:05.986Z,99.90
2023-04-04T20:50:46.295Z,99.90
2023-04-04T20:53:20.095Z,99.90
2023-04-04T20:55:51.493Z,99.90
2023-04-04T20:58:30.462Z,99.90
2023-04-04T21:01:00.718Z,99.90
2023-04-04T21:03:35.215Z,99.90
2023-04-04T21:06:13.217Z,99.90
2023-04-04T21:08:44.252Z,99.90
2023-04-04T21:11:14.927Z,99.90
2023-04-04T21:13:45.580Z,99.90
2023-04-04T21:16:16.789Z,99.90
2023-04-04T21:18:46.019Z,99.90
2023-04-04T21:21:18.575Z,99.90
2023-04-04T21:23:49.609Z,99.90
2023-04-04T21:26:30.349Z,99.90
2023-04-04T21:28:59.739Z,99.90
2023-04-04T21:31:37.039Z,99.90
2023-04-04T21:34:09.981Z,99.90
2023-04-04T21:36:38.082Z,99.90
2023-04-04T21:39:10.828Z,99.90
2023-04-04T21:41:40.886Z,99.90
2023-04-04T21:44:10.459Z,99.90
2023-04-04T21:46:40.413Z,99.90
2023-04-04T21:49:09.631Z,99.90
2023-04-04T21:51:37.881Z,99.90
2023-04-04T21:54:06.089Z,99.90
2023-04-04T21:56:34.260Z,99.90
2023-04-04T21:59:06.198Z,99.90
2023-04-04T22:01:34.366Z,99.90
2023-04-04T22:04:02.753Z,99.90
2023-04-04T22:06:31.105Z,99.90
2023-04-04T22:09:01.729Z,99.90
2023-04-04T22:11:30.555Z,99.90
2023-04-04T22:14:04.394Z,99.90
2023-04-04T22:16:36.766Z,99.90
2023-04-04T22:19:05.260Z,99.90
2023-04-04T22:21:36.446Z,99.90
2023-04-04T22:24:05.806Z,99.90
2023-04-04T22:26:34.558Z,99.90
2023-04-04T22:29:06.133Z,99.90
2023-04-04T22:31:37.453Z,99.90
2023-04-04T22:34:06.443Z,99.90
2023-04-04T22:36:35.408Z,99.90
2023-04-04T22:39:03.656Z,99.90
2023-04-04T22:41:31.766Z,99.90
2023-04-04T22:43:59.818Z,99.90
2023-04-04T22:46:28.854Z,99.90
2023-04-04T22:49:06.404Z,99.90
2023-04-04T22:51:43.026Z,99.90
2023-04-04T22:54:12.978Z,99.90
2023-04-04T22:56:41.722Z,99.90
2023-04-04T22:59:09.860Z,99.90
2023-04-04T23:01:38.169Z,99.90
2023-04-04T23:04:08.024Z,99.90
2023-04-04T23:06:38.244Z,99.90
2023-04-04T23:09:08.072Z,99.90
2023-04-04T23:11:36.962Z,99.90
2023-04-04T23:14:08.873Z,99.90
2023-04-04T23:16:37.573Z,99.90
2023-04-04T23:19:07.526Z,99.90
2023-04-04T23:21:36.595Z,99.90
2023-04-04T23:24:04.925Z,99.90
2023-04-04T23:26:33.485Z,99.90
2023-04-04T23:29:02.057Z,99.90
2023-04-04T23:31:30.624Z,99.90
2023-04-04T23:33:59.980Z,99.90
2023-04-04T23:36:29.525Z,99.90
2023-04-04T23:38:57.555Z,99.90
2023-04-04T23:41:26.626Z,99.90
2023-04-04T23:43:54.653Z,99.90
2023-04-04T23:46:23.813Z,99.90
2023-04-04T23:48:51.864Z,99.90
2023-04-04T23:51:19.947Z,99.90
2023-04-04T23:53:49.326Z,99.90
2023-04-04T23:56:17.790Z,99.90
2023-04-04T23:58:46.123Z,99.90
